Time;durP1;ratioP1;P1;durP2;ratioP2;P2;SDS_P1;SDS_P2;PMS_P1;PMS_P2;Temp;Humidity;BMP_temperature;BMP_pressure;BME280_temperature;BME280_humidity;BME280_pressure;Samples;Min_cycle;Max_cycle;Signal;HPM_P1;HPM_P2
2021/06/09 00:00:09;;;;;;;21.10;11.67;;;19.70;99.90;;;;;;5003013;28;20542;-69
2021/06/09 00:02:35;;;;;;;20.17;13.47;;;19.60;99.90;;;;;;5002093;28;20477;-70
2021/06/09 00:05:03;;;;;;;17.23;12.50;;;19.30;99.90;;;;;;5001641;28;21713;-73
2021/06/09 00:07:29;;;;;;;19.33;13.77;;;19.20;99.90;;;;;;5004093;28;20460;-70
2021/06/09 00:09:57;;;;;;;19.03;13.73;;;19.30;99.90;;;;;;5006398;28;20875;-69
2021/06/09 00:12:24;;;;;;;15.20;11.93;;;19.40;99.90;;;;;;5007204;28;20608;-73
2021/06/09 00:14:50;;;;;;;22.30;12.93;;;19.50;99.90;;;;;;5006964;28;20601;-70
2021/06/09 00:17:17;;;;;;;20.53;14.60;;;19.40;99.90;;;;;;5005622;28;20516;-71
2021/06/09 00:19:43;;;;;;;19.30;12.53;;;19.40;99.90;;;;;;5010236;28;20467;-71
2021/06/09 00:22:10;;;;;;;16.20;12.80;;;19.30;99.90;;;;;;5013726;28;20992;-70
2021/06/09 00:24:38;;;;;;;14.73;11.23;;;19.30;99.90;;;;;;5010891;28;20872;-69
2021/06/09 00:27:06;;;;;;;18.70;13.20;;;19.20;99.90;;;;;;5010366;28;20955;-70
2021/06/09 00:29:33;;;;;;;27.17;14.43;;;19.10;99.90;;;;;;5003134;28;20544;-70
2021/06/09 00:31:59;;;;;;;19.70;13.70;;;19.20;99.90;;;;;;5001133;28;20644;-71
2021/06/09 00:34:26;;;;;;;19.23;14.30;;;19.10;99.90;;;;;;5003342;28;20493;-73
2021/06/09 00:36:52;;;;;;;26.73;17.50;;;19.10;99.90;;;;;;5008765;28;20464;-71
2021/06/09 00:39:19;;;;;;;19.97;14.67;;;19.10;99.90;;;;;;5009937;28;20449;-71
2021/06/09 00:41:45;;;;;;;20.47;14.83;;;19.00;99.90;;;;;;4999707;28;20568;-69
2021/06/09 00:44:14;;;;;;;20.00;14.13;;;18.90;99.90;;;;;;5006534;28;20490;-71
2021/06/09 00:46:42;;;;;;;21.67;15.20;;;18.90;99.90;;;;;;5007076;28;20432;-71
2021/06/09 00:49:10;;;;;;;21.10;13.93;;;18.50;99.90;;;;;;5008495;28;20481;-71
2021/06/09 00:51:36;;;;;;;19.67;13.83;;;18.50;99.90;;;;;;5002535;28;20489;-69
2021/06/09 00:54:04;;;;;;;17.57;12.60;;;18.60;99.90;;;;;;5004422;28;20477;-72
2021/06/09 00:56:33;;;;;;;19.80;13.77;;;18.30;99.90;;;;;;5008400;28;20462;-71
2021/06/09 00:59:00;;;;;;;23.07;15.50;;;18.30;99.90;;;;;;5012175;28;20576;-69
2021/06/09 01:01:29;;;;;;;21.03;13.97;;;18.40;99.90;;;;;;5000803;28;20505;-69
2021/06/09 01:03:56;;;;;;;18.60;13.17;;;18.60;99.90;;;;;;5006967;28;20440;-70
2021/06/09 01:06:23;;;;;;;18.30;15.03;;;18.70;99.90;;;;;;5005015;28;20456;-70
2021/06/09 01:08:52;;;;;;;17.53;12.37;;;18.60;99.90;;;;;;5007976;28;20476;-74
2021/06/09 01:11:20;;;;;;;22.67;14.43;;;18.70;99.90;;;;;;5003443;28;20480;-70
2021/06/09 01:13:47;;;;;;;22.83;14.60;;;18.70;99.90;;;;;;5008952;28;20567;-70
2021/06/09 01:16:14;;;;;;;24.00;15.73;;;18.70;99.90;;;;;;5023171;28;21122;-70
2021/06/09 01:18:42;;;;;;;17.37;12.47;;;18.60;99.90;;;;;;5014066;28;20468;-71
2021/06/09 01:21:09;;;;;;;19.63;13.37;;;18.70;99.90;;;;;;5007956;28;20520;-72
2021/06/09 01:23:37;;;;;;;17.53;11.83;;;18.70;99.90;;;;;;5008654;28;20473;-70
2021/06/09 01:26:05;;;;;;;18.90;13.17;;;18.70;99.90;;;;;;5011851;28;20532;-70
2021/06/09 01:28:31;;;;;;;20.20;14.27;;;18.90;99.90;;;;;;5008548;28;20476;-71
2021/06/09 01:30:58;;;;;;;21.43;14.50;;;18.80;99.90;;;;;;5013834;28;20451;-73
2021/06/09 01:33:24;;;;;;;21.33;14.47;;;18.80;99.90;;;;;;5008732;28;20887;-71
2021/06/09 01:35:52;;;;;;;23.87;14.50;;;18.80;99.90;;;;;;5005825;28;20453;-71
2021/06/09 01:38:19;;;;;;;23.50;18.23;;;18.70;99.90;;;;;;5006802;28;20471;-71
2021/06/09 01:40:47;;;;;;;24.07;15.47;;;18.70;99.90;;;;;;5007993;28;20493;-72
2021/06/09 01:43:14;;;;;;;22.50;14.33;;;18.70;99.90;;;;;;4994685;28;20530;-71
2021/06/09 01:45:40;;;;;;;24.60;15.50;;;18.50;99.90;;;;;;5008298;28;20450;-71
2021/06/09 01:48:09;;;;;;;24.63;18.13;;;18.50;99.90;;;;;;5006309;28;20449;-71
2021/06/09 01:50:37;;;;;;;18.87;14.10;;;18.50;99.90;;;;;;5002499;28;20492;-73
2021/06/09 01:53:04;;;;;;;21.97;15.60;;;18.50;99.90;;;;;;5006317;28;20620;-69
2021/06/09 01:55:32;;;;;;;22.50;14.67;;;18.50;99.90;;;;;;5009845;28;20508;-70
2021/06/09 01:58:01;;;;;;;22.53;13.77;;;18.60;99.90;;;;;;5009169;28;21017;-72
2021/06/09 02:00:31;;;;;;;18.83;14.07;;;18.60;99.90;;;;;;5002040;28;20481;-75
2021/06/09 02:02:58;;;;;;;21.40;14.93;;;18.70;99.90;;;;;;5002877;28;20460;-70
2021/06/09 02:05:26;;;;;;;20.50;15.60;;;18.70;99.90;;;;;;5007992;28;20468;-70
2021/06/09 02:07:54;;;;;;;19.50;13.97;;;18.60;99.90;;;;;;5008378;28;20535;-70
2021/06/09 02:10:21;;;;;;;20.57;15.93;;;18.60;99.90;;;;;;5006679;28;20520;-70
2021/06/09 02:12:51;;;;;;;23.40;15.13;;;18.60;99.90;;;;;;5012217;28;20480;-73
2021/06/09 02:15:20;;;;;;;25.37;17.63;;;18.40;99.90;;;;;;5008490;28;20539;-70
2021/06/09 02:17:56;;;;;;;20.57;14.40;;;18.30;99.90;;;;;;5012133;28;20465;-72
2021/06/09 02:20:24;;;;;;;29.27;15.30;;;18.40;99.90;;;;;;5001195;28;20443;-71
2021/06/09 02:22:51;;;;;;;23.97;14.30;;;18.40;99.90;;;;;;5007402;28;20574;-73
2021/06/09 02:25:17;;;;;;;23.50;13.70;;;18.40;99.90;;;;;;5005719;28;20538;-72
2021/06/09 02:27:44;;;;;;;31.03;17.63;;;18.40;99.90;;;;;;5010677;28;20448;-69
2021/06/09 02:30:12;;;;;;;24.60;17.30;;;18.40;99.90;;;;;;5019686;28;22207;-71
2021/06/09 02:32:42;;;;;;;30.40;18.23;;;18.40;99.90;;;;;;5005637;28;20481;-70
2021/06/09 02:35:15;;;;;;;27.63;16.13;;;18.30;99.90;;;;;;5006169;28;20450;-70
2021/06/09 02:37:41;;;;;;;30.00;18.50;;;18.30;99.90;;;;;;5008292;28;20926;-74
2021/06/09 02:40:09;;;;;;;24.40;16.43;;;18.40;99.90;;;;;;5005817;28;21885;-71
2021/06/09 02:42:37;;;;;;;22.57;17.00;;;18.40;99.90;;;;;;5008871;28;20526;-70
2021/06/09 02:45:09;;;;;;;22.90;16.80;;;18.40;99.90;;;;;;5006765;28;20465;-70
2021/06/09 02:47:38;;;;;;;25.33;15.97;;;18.30;99.90;;;;;;5006997;28;20527;-70
2021/06/09 02:50:07;;;;;;;26.97;17.70;;;18.30;99.90;;;;;;5009685;28;20557;-74
2021/06/09 02:52:39;;;;;;;23.47;15.73;;;18.10;99.90;;;;;;5003732;28;20522;-73
2021/06/09 02:55:13;;;;;;;23.23;13.87;;;17.90;99.90;;;;;;5003105;28;20544;-70
2021/06/09 02:57:44;;;;;;;22.57;14.23;;;17.90;99.90;;;;;;5006646;28;20454;-70
2021/06/09 03:00:15;;;;;;;19.70;13.97;;;18.10;99.90;;;;;;5009545;28;20895;-71
2021/06/09 03:02:51;;;;;;;18.90;13.80;;;18.10;99.90;;;;;;5002601;28;20546;-72
2021/06/09 03:05:25;;;;;;;23.67;15.53;;;18.10;99.90;;;;;;5010217;28;20468;-71
2021/06/09 03:08:03;;;;;;;24.47;14.47;;;18.00;99.90;;;;;;5011981;28;20424;-69
2021/06/09 03:10:41;;;;;;;24.57;14.97;;;18.00;99.90;;;;;;5013909;28;20464;-71
2021/06/09 03:13:15;;;;;;;25.40;15.40;;;18.00;99.90;;;;;;5004275;28;20564;-70
2021/06/09 03:15:46;;;;;;;20.73;15.30;;;18.00;99.90;;;;;;5005317;28;21320;-70
2021/06/09 03:18:17;;;;;;;19.80;15.27;;;18.00;99.90;;;;;;5015035;28;21734;-73
2021/06/09 03:20:56;;;;;;;28.83;18.23;;;18.00;99.90;;;;;;5010358;28;20858;-71
2021/06/09 03:23:45;;;;;;;30.93;18.20;;;17.90;99.90;;;;;;5018316;28;20812;-69
2021/06/09 03:26:15;;;;;;;28.60;17.30;;;18.00;99.90;;;;;;5009140;28;20512;-73
2021/06/09 03:28:48;;;;;;;23.23;14.13;;;17.90;99.90;;;;;;5018731;28;20547;-70
2021/06/09 03:31:21;;;;;;;25.50;17.47;;;17.80;99.90;;;;;;5012957;28;21051;-69
2021/06/09 03:33:51;;;;;;;28.07;16.20;;;17.80;99.90;;;;;;5002300;28;20849;-75
2021/06/09 03:36:22;;;;;;;25.23;15.33;;;17.80;99.90;;;;;;5011242;28;20456;-72
2021/06/09 03:38:54;;;;;;;26.20;16.77;;;17.90;99.90;;;;;;5004877;28;20960;-69
2021/06/09 03:41:23;;;;;;;23.93;15.70;;;17.80;99.90;;;;;;5005652;28;20662;-73
2021/06/09 03:43:53;;;;;;;19.80;14.87;;;17.80;99.90;;;;;;5009153;28;20533;-70
2021/06/09 03:46:23;;;;;;;25.27;16.60;;;17.90;99.90;;;;;;4997333;28;20464;-73
2021/06/09 03:48:52;;;;;;;25.73;15.47;;;18.10;99.90;;;;;;5003511;28;20946;-70
2021/06/09 03:51:24;;;;;;;30.80;17.80;;;18.10;99.90;;;;;;5009878;28;20481;-72
2021/06/09 03:53:52;;;;;;;22.17;15.00;;;18.20;99.90;;;;;;5009058;28;20496;-72
2021/06/09 03:56:19;;;;;;;28.37;15.87;;;18.30;99.90;;;;;;5012836;28;20460;-70
2021/06/09 03:58:47;;;;;;;22.97;14.13;;;18.20;99.90;;;;;;5013787;28;20535;-70
2021/06/09 04:01:14;;;;;;;23.50;15.00;;;18.00;99.90;;;;;;5008290;28;20566;-70
2021/06/09 04:03:43;;;;;;;21.87;13.60;;;17.90;99.90;;;;;;5006306;28;20532;-70
2021/06/09 04:06:15;;;;;;;24.40;15.63;;;18.00;99.90;;;;;;5009364;28;20541;-73
2021/06/09 04:08:45;;;;;;;24.17;16.60;;;17.80;99.90;;;;;;5008268;28;20457;-72
2021/06/09 04:11:17;;;;;;;23.57;16.03;;;17.90;99.90;;;;;;5002500;28;20618;-70
2021/06/09 04:13:45;;;;;;;26.87;13.53;;;17.90;99.90;;;;;;5004088;28;20563;-71
2021/06/09 04:16:14;;;;;;;20.67;14.13;;;17.80;99.90;;;;;;5002526;28;20484;-69
2021/06/09 04:18:44;;;;;;;22.00;13.87;;;17.70;99.90;;;;;;5015242;28;20452;-70
2021/06/09 04:21:12;;;;;;;26.93;16.77;;;17.70;99.90;;;;;;5001300;28;20518;-71
2021/06/09 04:23:39;;;;;;;29.83;19.20;;;17.80;99.90;;;;;;5010416;28;20470;-69
2021/06/09 04:26:11;;;;;;;25.20;16.70;;;18.00;99.90;;;;;;5007413;28;20562;-70
2021/06/09 04:28:38;;;;;;;25.37;16.67;;;18.20;99.90;;;;;;5001994;28;22395;-72
2021/06/09 04:31:06;;;;;;;26.43;17.70;;;18.30;99.90;;;;;;5004162;28;20485;-70
2021/06/09 04:33:33;;;;;;;26.83;17.10;;;18.30;99.90;;;;;;5010466;28;20579;-69
2021/06/09 04:35:59;;;;;;;19.90;13.83;;;18.30;99.90;;;;;;5013250;28;20485;-72
2021/06/09 04:38:26;;;;;;;26.67;16.90;;;18.30;99.90;;;;;;4994135;28;20488;-70
2021/06/09 04:40:53;;;;;;;28.00;14.97;;;18.30;99.90;;;;;;5002378;28;20508;-73
2021/06/09 04:43:24;;;;;;;20.20;14.33;;;18.30;99.90;;;;;;5005914;28;20495;-69
2021/06/09 04:45:51;;;;;;;18.67;14.10;;;18.20;99.90;;;;;;5009129;28;20457;-72
2021/06/09 04:48:19;;;;;;;20.17;14.57;;;18.20;99.90;;;;;;5007525;28;20805;-71
2021/06/09 04:50:48;;;;;;;25.77;15.57;;;18.40;99.90;;;;;;5013157;28;20608;-74
2021/06/09 04:53:15;;;;;;;28.60;17.10;;;18.40;99.90;;;;;;5002708;28;20901;-70
2021/06/09 04:55:44;;;;;;;29.27;15.83;;;18.50;99.90;;;;;;5011151;28;20542;-73
2021/06/09 04:58:12;;;;;;;30.60;17.43;;;18.50;99.90;;;;;;5014500;28;20460;-70
2021/06/09 05:00:41;;;;;;;30.80;16.70;;;18.50;99.90;;;;;;5015965;28;20487;-69
2021/06/09 05:03:08;;;;;;;26.40;16.67;;;18.50;99.90;;;;;;5015911;28;20797;-74
2021/06/09 05:05:34;;;;;;;32.10;17.03;;;18.70;99.90;;;;;;5013053;28;20465;-70
2021/06/09 05:08:01;;;;;;;33.13;15.67;;;18.80;99.90;;;;;;5015715;28;20482;-70
2021/06/09 05:10:28;;;;;;;34.13;18.03;;;19.00;99.90;;;;;;5019367;28;20507;-69
2021/06/09 05:12:58;;;;;;;40.70;20.30;;;19.10;99.90;;;;;;5016050;28;20567;-71
2021/06/09 05:15:27;;;;;;;26.70;15.00;;;19.30;99.90;;;;;;5015445;28;20453;-73
2021/06/09 05:17:54;;;;;;;29.50;17.97;;;19.30;99.90;;;;;;5022208;28;20581;-71
2021/06/09 05:20:25;;;;;;;23.57;16.57;;;19.30;99.90;;;;;;5011480;28;20503;-66
2021/06/09 05:22:59;;;;;;;23.33;15.20;;;19.40;99.90;;;;;;5007907;28;20626;-72
2021/06/09 05:25:28;;;;;;;25.17;16.60;;;19.80;99.90;;;;;;5007749;28;20542;-71
2021/06/09 05:27:56;;;;;;;29.73;17.70;;;19.90;99.90;;;;;;4999006;28;20470;-75
2021/06/09 05:30:24;;;;;;;23.20;16.80;;;20.10;99.90;;;;;;5002842;28;20531;-68
2021/06/09 05:32:54;;;;;;;26.73;18.43;;;20.20;99.90;;;;;;5010012;28;20567;-73
2021/06/09 05:35:23;;;;;;;27.40;16.13;;;20.50;99.90;;;;;;5014227;28;21626;-74
2021/06/09 05:37:50;;;;;;;27.00;17.20;;;21.00;99.90;;;;;;5020970;28;20472;-70
2021/06/09 05:40:18;;;;;;;30.30;19.13;;;21.30;99.90;;;;;;5010362;28;21070;-70
2021/06/09 05:42:45;;;;;;;31.70;18.73;;;21.60;99.90;;;;;;5019060;28;20457;-73
2021/06/09 05:45:13;;;;;;;30.43;20.00;;;22.10;99.90;;;;;;5016158;28;20496;-71
2021/06/09 05:47:41;;;;;;;31.93;20.57;;;22.20;99.90;;;;;;5018591;28;20465;-71
2021/06/09 05:50:10;;;;;;;26.30;18.60;;;22.50;99.90;;;;;;5012714;28;20785;-75
2021/06/09 05:52:38;;;;;;;29.67;19.93;;;22.60;99.90;;;;;;5009976;28;20488;-70
2021/06/09 05:55:05;;;;;;;27.30;20.47;;;22.90;99.90;;;;;;5008727;28;20489;-71
2021/06/09 05:57:32;;;;;;;30.00;20.20;;;23.20;99.90;;;;;;5009239;28;20536;-73
2021/06/09 05:59:59;;;;;;;29.23;21.47;;;23.30;99.90;;;;;;5005921;28;20949;-71
2021/06/09 06:02:29;;;;;;;26.27;19.80;;;23.50;99.90;;;;;;5017924;28;20508;-73
2021/06/09 06:04:58;;;;;;;26.27;18.00;;;23.60;99.90;;;;;;5015339;28;20930;-69
2021/06/09 06:07:25;;;;;;;23.77;17.57;;;23.60;99.90;;;;;;5010675;28;20461;-68
2021/06/09 06:09:53;;;;;;;29.60;18.90;;;23.80;99.90;;;;;;5007773;28;20559;-70
2021/06/09 06:12:24;;;;;;;24.27;18.73;;;23.90;99.90;;;;;;5011113;28;20477;-70
2021/06/09 06:14:51;;;;;;;29.40;20.30;;;23.90;99.90;;;;;;5008909;28;20464;-71
2021/06/09 06:17:18;;;;;;;28.03;18.90;;;23.90;99.90;;;;;;5016940;28;20495;-71
2021/06/09 06:19:49;;;;;;;32.67;19.80;;;24.10;99.90;;;;;;5015045;28;20503;-72
2021/06/09 06:22:15;;;;;;;32.40;19.40;;;24.30;99.90;;;;;;5006645;28;20505;-71
2021/06/09 06:24:44;;;;;;;29.90;19.60;;;24.40;99.90;;;;;;5014727;28;20496;-72
2021/06/09 06:27:12;;;;;;;33.83;22.07;;;24.80;99.90;;;;;;5010271;28;20469;-70
2021/06/09 06:33:02;;;;;;;28.27;20.30;;;25.20;99.90;;;;;;5030957;22;20508;-72
2021/06/09 06:35:28;;;;;;;27.47;20.80;;;25.30;99.90;;;;;;4987670;28;20560;-71
2021/06/09 06:37:55;;;;;;;33.00;20.47;;;25.00;99.90;;;;;;4994445;28;20533;-71
2021/06/09 06:40:24;;;;;;;29.87;19.90;;;25.10;99.90;;;;;;4990082;28;20528;-71
2021/06/09 06:42:52;;;;;;;34.93;22.20;;;25.00;99.90;;;;;;4992025;28;20478;-72
2021/06/09 06:45:20;;;;;;;31.73;20.47;;;25.00;99.90;;;;;;4996784;28;20489;-72
2021/06/09 06:47:47;;;;;;;26.00;19.10;;;25.00;99.90;;;;;;4990998;28;20488;-71
2021/06/09 06:50:15;;;;;;;31.93;20.83;;;25.10;99.90;;;;;;4992479;28;20490;-71
2021/06/09 06:52:44;;;;;;;27.60;21.30;;;25.60;99.90;;;;;;4989855;28;20923;-70
2021/06/09 06:55:11;;;;;;;24.50;18.63;;;26.00;99.90;;;;;;4989205;28;20462;-70
2021/06/09 06:57:38;;;;;;;27.23;19.40;;;26.20;99.90;;;;;;4993116;28;20485;-71
2021/06/09 07:00:10;;;;;;;30.13;19.87;;;26.60;99.90;;;;;;4988563;28;20457;-71
2021/06/09 07:02:39;;;;;;;33.17;20.83;;;26.90;99.90;;;;;;4994208;28;20447;-72
2021/06/09 07:05:09;;;;;;;28.10;18.77;;;27.10;99.90;;;;;;4984603;28;20886;-71
2021/06/09 07:07:36;;;;;;;26.90;17.90;;;27.50;99.90;;;;;;5003595;28;20465;-71
2021/06/09 07:10:05;;;;;;;27.00;18.50;;;27.70;99.90;;;;;;5000236;28;20485;-71
2021/06/09 07:12:32;;;;;;;22.77;17.63;;;27.80;99.90;;;;;;4990226;28;20465;-70
2021/06/09 07:14:59;;;;;;;20.60;16.70;;;27.20;99.90;;;;;;4997723;28;20524;-69
2021/06/09 07:17:28;;;;;;;24.77;19.20;;;27.30;99.90;;;;;;4995033;28;20486;-70
2021/06/09 07:19:54;;;;;;;26.37;22.43;;;27.40;99.90;;;;;;4993889;28;20616;-69
2021/06/09 07:22:21;;;;;;;20.87;16.00;;;27.80;99.90;;;;;;4994542;28;20565;-70
2021/06/09 07:24:47;;;;;;;20.17;16.87;;;28.00;99.90;;;;;;4999471;28;20609;-69
2021/06/09 07:27:15;;;;;;;21.90;16.20;;;27.50;99.90;;;;;;4995051;28;20580;-72
2021/06/09 07:29:44;;;;;;;20.40;16.53;;;28.00;99.90;;;;;;4994254;28;21020;-71
2021/06/09 07:32:11;;;;;;;25.17;18.07;;;27.80;99.90;;;;;;4990864;28;21114;-71
2021/06/09 07:34:39;;;;;;;22.27;16.17;;;27.70;99.90;;;;;;4991309;28;20569;-71
2021/06/09 07:37:12;;;;;;;22.40;16.03;;;27.60;99.90;;;;;;4991433;28;20458;-70
2021/06/09 07:39:41;;;;;;;25.10;18.90;;;27.90;99.90;;;;;;4986816;28;20511;-72
2021/06/09 07:42:12;;;;;;;19.80;16.33;;;27.80;99.90;;;;;;4991517;28;20468;-70
2021/06/09 07:44:44;;;;;;;24.63;19.10;;;27.90;99.90;;;;;;4994897;28;20576;-70
2021/06/09 07:47:13;;;;;;;22.40;17.60;;;28.50;99.90;;;;;;4990530;28;20450;-70
2021/06/09 07:49:46;;;;;;;23.03;18.33;;;28.40;99.90;;;;;;4990006;28;20461;-70
2021/06/09 07:52:14;;;;;;;30.10;19.73;;;28.60;99.90;;;;;;4990864;28;20465;-70
2021/06/09 07:54:42;;;;;;;28.90;20.37;;;28.90;99.90;;;;;;4992132;28;20511;-69
2021/06/09 07:57:10;;;;;;;25.10;19.27;;;28.20;99.90;;;;;;4989100;28;20506;-70
2021/06/09 07:59:38;;;;;;;26.07;19.20;;;28.40;99.90;;;;;;4994665;28;20477;-70
2021/06/09 08:02:05;;;;;;;26.93;19.23;;;28.80;99.90;;;;;;4993915;28;20500;-70
2021/06/09 08:04:31;;;;;;;23.53;19.30;;;28.90;99.90;;;;;;4999972;28;21025;-70
2021/06/09 08:07:00;;;;;;;21.57;17.77;;;29.10;99.90;;;;;;4979791;28;20497;-69
2021/06/09 08:09:26;;;;;;;27.10;19.40;;;28.60;99.90;;;;;;4986745;28;20588;-69
2021/06/09 08:11:53;;;;;;;21.63;17.70;;;29.40;99.90;;;;;;4991576;28;20594;-68
2021/06/09 08:14:21;;;;;;;20.27;16.97;;;30.10;99.90;;;;;;4989252;28;21024;-69
2021/06/09 08:16:48;;;;;;;20.90;16.50;;;29.70;99.90;;;;;;4990325;28;20456;-69
2021/06/09 08:19:14;;;;;;;21.93;16.67;;;29.70;99.90;;;;;;4993275;28;20890;-69
2021/06/09 08:21:42;;;;;;;22.93;17.17;;;29.50;99.90;;;;;;4983923;28;20461;-70
2021/06/09 08:24:10;;;;;;;29.10;18.40;;;29.50;99.90;;;;;;4988481;28;20928;-70
2021/06/09 08:26:36;;;;;;;19.70;15.40;;;29.70;99.90;;;;;;4994698;28;20465;-71
2021/06/09 08:29:05;;;;;;;22.27;17.27;;;30.30;99.90;;;;;;5001013;28;20461;-71
2021/06/09 08:31:33;;;;;;;16.57;14.10;;;29.70;99.90;;;;;;4995837;28;21001;-71
2021/06/09 08:34:00;;;;;;;17.07;13.60;;;28.60;99.90;;;;;;4994750;28;20485;-71
2021/06/09 08:36:28;;;;;;;18.00;12.70;;;27.40;99.90;;;;;;4996452;28;20473;-70
2021/06/09 08:38:56;;;;;;;14.93;11.73;;;27.00;99.90;;;;;;4996644;28;20621;-70
2021/06/09 08:41:27;;;;;;;15.17;12.17;;;27.00;99.90;;;;;;5001063;28;20774;-71
2021/06/09 08:43:55;;;;;;;15.80;11.53;;;27.10;99.90;;;;;;4990477;28;20485;-70
2021/06/09 08:46:23;;;;;;;13.67;10.10;;;27.40;99.90;;;;;;4994370;28;20457;-70
2021/06/09 08:48:49;;;;;;;12.57;9.70;;;28.10;99.90;;;;;;4996639;28;20817;-70
2021/06/09 08:51:17;;;;;;;9.47;8.47;;;29.40;99.90;;;;;;4998984;28;20536;-70
2021/06/09 08:53:46;;;;;;;11.70;10.43;;;30.00;99.90;;;;;;4989226;28;20508;-70
2021/06/09 08:56:13;;;;;;;11.30;10.10;;;30.60;99.90;;;;;;4996231;28;20961;-70
2021/06/09 08:58:42;;;;;;;15.90;11.90;;;31.10;99.90;;;;;;4998549;28;20540;-70
2021/06/09 09:01:11;;;;;;;19.30;13.77;;;31.30;99.90;;;;;;5000587;28;20464;-71
2021/06/09 09:03:41;;;;;;;14.30;12.80;;;31.70;99.90;;;;;;4990821;28;20508;-71
2021/06/09 09:06:09;;;;;;;13.70;12.30;;;31.40;99.90;;;;;;5006679;28;20504;-70
2021/06/09 09:08:36;;;;;;;17.13;15.40;;;30.80;99.90;;;;;;5007901;28;20967;-70
2021/06/09 09:11:03;;;;;;;18.37;15.17;;;29.50;99.90;;;;;;5006917;28;20843;-70
2021/06/09 09:13:30;;;;;;;18.40;14.80;;;28.70;99.90;;;;;;4998318;28;20595;-70
2021/06/09 09:15:57;;;;;;;19.63;15.60;;;28.20;99.90;;;;;;5008182;28;20511;-69
2021/06/09 09:18:38;;;;;;;17.80;15.90;;;27.80;99.90;;;;;;5000693;28;20461;-70
2021/06/09 09:21:05;;;;;;;28.63;13.77;;;27.40;99.90;;;;;;5005116;28;21124;-71
2021/06/09 09:23:31;;;;;;;17.57;12.87;;;28.10;99.90;;;;;;4997540;28;21010;-71
2021/06/09 09:26:00;;;;;;;15.03;12.00;;;29.20;99.90;;;;;;4998742;28;20511;-71
2021/06/09 09:28:30;;;;;;;12.90;11.57;;;30.00;99.90;;;;;;5002480;28;20551;-71
2021/06/09 09:31:07;;;;;;;13.10;11.57;;;30.90;99.90;;;;;;5009343;28;20468;-71
2021/06/09 09:33:34;;;;;;;17.47;12.30;;;30.90;99.90;;;;;;4997099;28;20581;-71
2021/06/09 09:36:21;;;;;;;12.80;11.13;;;30.50;99.90;;;;;;5003961;28;20552;-71
2021/06/09 09:38:48;;;;;;;11.50;10.40;;;32.00;99.90;;;;;;5012078;28;20512;-71
2021/06/09 09:41:16;;;;;;;14.63;10.37;;;32.60;99.90;;;;;;5006510;28;20470;-71
2021/06/09 09:44:01;;;;;;;15.17;13.53;;;32.70;99.90;;;;;;5000884;28;21004;-71
2021/06/09 09:46:33;;;;;;;14.93;11.23;;;33.20;99.90;;;;;;5005774;28;20461;-71
2021/06/09 09:49:09;;;;;;;11.37;10.23;;;32.90;99.00;;;;;;4993705;28;20477;-71
2021/06/09 09:51:38;;;;;;;15.20;12.80;;;31.70;99.90;;;;;;5001168;28;20465;-70
2021/06/09 09:54:06;;;;;;;15.33;11.53;;;30.30;99.90;;;;;;4993134;28;21269;-71
2021/06/09 09:56:34;;;;;;;13.10;11.70;;;29.50;99.90;;;;;;4996431;28;20534;-70
2021/06/09 09:59:04;;;;;;;14.63;12.90;;;29.10;99.90;;;;;;4996916;28;20584;-70
2021/06/09 10:01:33;;;;;;;11.20;9.97;;;29.10;99.90;;;;;;4992646;28;20481;-69
2021/06/09 10:04:01;;;;;;;12.67;9.50;;;29.90;99.90;;;;;;4993860;28;20939;-69
2021/06/09 10:06:30;;;;;;;10.10;9.10;;;30.70;99.90;;;;;;5001144;28;20466;-72
2021/06/09 10:08:59;;;;;;;13.00;11.00;;;31.20;99.90;;;;;;4996989;28;20473;-69
2021/06/09 10:11:27;;;;;;;10.10;9.10;;;32.10;99.90;;;;;;4997583;28;20485;-70
2021/06/09 10:13:53;;;;;;;10.60;9.57;;;31.80;99.90;;;;;;5004373;28;20564;-70
2021/06/09 10:16:28;;;;;;;10.40;9.30;;;32.30;98.70;;;;;;5000836;28;20492;-71
2021/06/09 10:18:59;;;;;;;10.70;9.60;;;32.60;97.80;;;;;;5001911;28;20485;-71
2021/06/09 10:21:26;;;;;;;10.57;8.50;;;33.80;96.20;;;;;;5008268;28;20511;-70
2021/06/09 10:23:59;;;;;;;11.03;8.93;;;33.80;95.00;;;;;;5000436;28;20941;-70
2021/06/09 10:26:26;;;;;;;10.83;9.23;;;33.20;95.70;;;;;;4996707;28;20989;-70
2021/06/09 10:29:06;;;;;;;9.53;8.57;;;32.40;95.90;;;;;;4995885;28;20493;-70
2021/06/09 10:31:34;;;;;;;9.50;8.60;;;31.20;96.80;;;;;;4995496;28;21107;-70
2021/06/09 10:34:03;;;;;;;9.93;8.37;;;30.60;99.10;;;;;;4991533;28;20489;-70
2021/06/09 10:36:33;;;;;;;10.03;8.77;;;30.30;99.90;;;;;;4988950;28;20461;-70
2021/06/09 10:39:00;;;;;;;12.80;9.00;;;30.40;99.90;;;;;;4988353;28;20486;-70
2021/06/09 10:41:29;;;;;;;10.70;8.70;;;30.40;99.70;;;;;;4992809;28;20497;-70
2021/06/09 10:43:57;;;;;;;9.33;8.27;;;30.00;99.20;;;;;;4996193;28;20511;-70
2021/06/09 10:46:26;;;;;;;9.87;8.67;;;29.80;99.90;;;;;;4987763;28;20469;-70
2021/06/09 10:49:00;;;;;;;9.13;8.27;;;30.40;99.40;;;;;;4969418;28;20463;-71
2021/06/09 10:51:28;;;;;;;8.53;7.53;;;31.20;97.90;;;;;;4985645;28;20462;-70
2021/06/09 10:53:57;;;;;;;9.10;8.10;;;32.10;96.50;;;;;;4992650;28;20504;-71
2021/06/09 10:56:24;;;;;;;7.90;7.10;;;32.70;96.10;;;;;;4990625;28;20548;-71
2021/06/09 10:58:50;;;;;;;14.20;10.03;;;32.90;95.70;;;;;;4991941;28;20545;-70
2021/06/09 11:01:22;;;;;;;11.20;8.20;;;33.30;94.30;;;;;;4989976;28;20553;-71
2021/06/09 11:03:50;;;;;;;8.53;6.30;;;33.50;94.20;;;;;;4990902;28;20465;-71
2021/06/09 11:06:16;;;;;;;7.47;6.77;;;34.60;91.50;;;;;;4995574;28;20476;-71
2021/06/09 11:08:44;;;;;;;9.00;8.03;;;34.80;88.00;;;;;;4998710;28;20553;-71
2021/06/09 11:11:19;;;;;;;9.00;7.93;;;34.90;89.60;;;;;;4995347;28;20454;-70
2021/06/09 11:13:47;;;;;;;11.20;7.10;;;34.90;84.60;;;;;;4992576;28;20515;-72
2021/06/09 11:16:17;;;;;;;8.97;7.17;;;34.10;83.30;;;;;;4984465;28;20477;-70
2021/06/09 11:18:45;;;;;;;7.30;6.70;;;33.10;85.00;;;;;;4991176;28;20461;-71
2021/06/09 11:21:15;;;;;;;7.23;6.53;;;33.30;82.20;;;;;;4995156;28;20638;-69
2021/06/09 11:23:45;;;;;;;9.30;8.27;;;33.80;83.00;;;;;;4997799;28;20473;-72
2021/06/09 11:26:27;;;;;;;9.70;7.93;;;34.20;84.30;;;;;;4996487;28;21092;-71
2021/06/09 11:28:53;;;;;;;9.63;7.77;;;34.80;82.10;;;;;;5001273;28;20492;-71
2021/06/09 11:31:24;;;;;;;9.60;8.27;;;35.40;78.80;;;;;;5004538;28;20496;-71
2021/06/09 11:34:00;;;;;;;9.83;8.93;;;35.80;78.00;;;;;;4995309;28;20481;-71
2021/06/09 11:36:38;;;;;;;11.27;6.97;;;35.70;76.30;;;;;;4990477;28;20493;-70
2021/06/09 11:39:10;;;;;;;8.03;7.33;;;35.10;75.00;;;;;;4989092;28;20978;-70
2021/06/09 11:41:40;;;;;;;8.70;7.90;;;35.20;78.80;;;;;;4997956;28;20465;-72
2021/06/09 11:44:23;;;;;;;7.40;6.70;;;35.70;76.50;;;;;;4999761;28;20914;-71
2021/06/09 11:46:49;;;;;;;7.47;6.80;;;35.80;77.30;;;;;;4994026;28;20465;-71
2021/06/09 11:49:23;;;;;;;9.03;7.57;;;35.60;75.30;;;;;;4993069;28;20537;-72
2021/06/09 11:52:00;;;;;;;6.97;6.33;;;34.90;75.20;;;;;;4985815;28;20984;-71
2021/06/09 11:54:32;;;;;;;8.27;7.57;;;34.80;77.30;;;;;;4991683;28;20547;-71
2021/06/09 11:57:03;;;;;;;9.03;7.50;;;34.90;72.60;;;;;;4997336;28;20553;-71
2021/06/09 11:59:33;;;;;;;13.00;6.80;;;35.30;73.80;;;;;;4998901;28;20458;-71
2021/06/09 12:02:02;;;;;;;10.50;8.10;;;36.20;70.50;;;;;;4989091;28;20458;-69
2021/06/09 12:04:30;;;;;;;8.10;7.40;;;36.20;70.10;;;;;;4986780;28;20478;-69
2021/06/09 12:06:58;;;;;;;8.70;8.00;;;36.20;69.80;;;;;;4991207;28;20466;-71
2021/06/09 12:09:26;;;;;;;6.90;6.30;;;36.30;69.00;;;;;;4984687;28;20462;-70
2021/06/09 12:11:56;;;;;;;8.80;6.07;;;35.90;66.00;;;;;;4977432;28;20457;-71
2021/06/09 12:14:26;;;;;;;7.90;7.10;;;34.70;67.70;;;;;;4987400;28;20859;-71
2021/06/09 12:16:55;;;;;;;6.93;6.20;;;34.70;69.60;;;;;;4990424;28;20978;-71
2021/06/09 12:19:30;;;;;;;9.40;6.07;;;34.80;68.70;;;;;;5002957;28;20616;-70
2021/06/09 12:22:03;;;;;;;6.50;6.00;;;35.00;67.00;;;;;;4984019;28;20829;-71
2021/06/09 12:24:29;;;;;;;6.30;5.73;;;35.10;69.00;;;;;;4990770;28;20500;-70
2021/06/09 12:27:01;;;;;;;7.43;6.83;;;35.80;67.50;;;;;;4987544;28;20608;-71
2021/06/09 12:29:30;;;;;;;8.70;7.40;;;35.60;67.80;;;;;;4986391;28;20582;-71
2021/06/09 12:31:57;;;;;;;7.50;6.80;;;35.60;67.00;;;;;;4988660;28;20687;-71
2021/06/09 12:34:29;;;;;;;7.90;7.10;;;35.60;67.60;;;;;;4993720;28;20500;-69
2021/06/09 12:37:00;;;;;;;8.33;7.43;;;35.60;67.00;;;;;;4994955;28;20504;-72
2021/06/09 12:39:27;;;;;;;7.67;6.97;;;36.80;62.00;;;;;;4991375;28;20967;-70
2021/06/09 12:41:54;;;;;;;8.97;6.70;;;37.10;63.30;;;;;;4984006;28;20949;-71